• Join FlightAware (Why Join?)
  • Login
  • US Flag 
05:56PM EDT


 

Airport Tracker/Info


-or-


 

Live Flight TrackerFlight Track Log ✈ DLH917 ✈ 12-Apr-2013 ✈ EGLL / LHR - EDDF / FRA

Flight Track Log - Related Links

Times and Time Zones

All times are in EDT time to prevent confusion due to time zone crossing. See the DLH917 flight status page for this flight to view local times or setup timezone preferences in your user account.

Time Position Orientation Groundspeed Altitude Reporting Facility
EDT Latitude Longitude Course Direction KTS MPH feet Rate Location/Type
02:31PM 51.4117 0.0825 101° East  Level Estimated
02:32PM 51.3949 0.2182 101° East  Level Estimated
02:33PM 51.3779 0.3538 101° East  Level Estimated
02:34PM 51.3607 0.4893 101° East  Level Estimated
02:35PM 51.3434 0.6247 102° East  Level Estimated
02:36PM 51.3259 0.7600 102° East  Level Estimated
02:37PM 51.3083 0.8952 102° East  Level Estimated
02:38PM 51.2905 1.0303 102° East  Level Estimated
02:39PM 51.2726 1.1653 102° East  Level Estimated
02:40PM 51.2545 1.3002 102° East  Level Estimated
02:41PM 51.2363 1.4350 102° East  Level Estimated
02:42PM 51.2179 1.5696 102° East  Level Estimated
02:43PM 51.1993 1.7042 102° East  Level Estimated
02:44PM 51.1806 1.8387 102° East  Level Estimated
02:45PM 51.1618 1.9730 103° East  Level Estimated
02:46PM 51.1427 2.1072 103° East  Level Estimated
02:47PM 51.1236 2.2414 103° East  Level Estimated
02:48PM 51.1043 2.3754 103° East  Level Estimated
02:49PM 51.0848 2.5093 103° East  Level Estimated
02:50PM 51.0652 2.6431 103° East  Level Estimated
02:51PM 51.0454 2.7768 103° East  Level Estimated
02:52PM 51.0255 2.9103 103° East  Level Estimated
02:53PM 51.0054 3.0438 103° East  Level Estimated
02:54PM 50.9851 3.1771 104° East  Level Estimated
02:55PM 50.9647 3.3103 104° East  Level Estimated
02:56PM 50.9442 3.4434 104° East  Level Estimated
02:57PM 50.9235 3.5764 104° East  Level Estimated
02:58PM 50.9027 3.7092 104° East  Level Estimated
02:59PM 50.8817 3.8420 104° East  Level Estimated
03:00PM 50.8605 3.9746 104° East  Level Estimated
03:01PM 50.8393 4.1071 104° East  Level Estimated
03:02PM 50.8178 4.2395 104° East  Level Estimated
03:03PM 50.7962 4.3717 104° East  Level Estimated
03:04PM 50.7745 4.5039 105° East  Level Estimated
03:05PM 50.7526 4.6359 105° East  Level Estimated
03:06PM 50.7306 4.7678 105° East  Level Estimated
03:07PM 50.7084 4.8995 105° East  Level Estimated
03:08PM 50.6860 5.0312 105° East  Level Estimated
03:09PM 50.6636 5.1627 105° East  Level Estimated
03:10PM 50.6409 5.2941 105° East  Level Estimated
03:11PM 50.6181 5.4253 105° East  Level Estimated
03:12PM 50.5952 5.5565 105° East  Level Estimated
03:13PM 50.5722 5.6875 105° East  Level Estimated
03:14PM 50.5489 5.8183 106° East  Level Estimated
03:15PM 50.5256 5.9491 106° East  Level Estimated
03:16PM 50.5020 6.0797 106° East  Level Estimated
03:17PM 50.4784 6.2102 106° East  Level Estimated
03:18PM 50.4546 6.3405 106° East  Level Estimated
03:19PM 50.4306 6.4707 106° East  Level Estimated
03:20PM 50.4066 6.6008 106° East  Level Estimated
03:21PM 50.3823 6.7308 106° East  Level Estimated
03:22PM 50.3579 6.8606 106° East  Level Estimated
03:23PM 50.3334 6.9903 106° East  Level Estimated
03:24PM 50.3087 7.1199 107° East  Level Estimated
03:25PM 50.2839 7.2493 107° East  Level Estimated
03:26PM 50.2589 7.3786 107° East  Level Estimated
03:27PM 50.2338 7.5077 107° East  Level Estimated
03:28PM 50.2086 7.6367 107° East  Level Estimated
03:29PM 50.1832 7.7656 107° East  Level Estimated
03:30PM 50.1577 7.8943 107° East  Level Estimated
03:31PM 50.1320 8.0229 107° East  Level Estimated
03:32PM 50.1062 8.1514 107° East  Level Estimated
03:33PM 50.0802 8.2797 107° East  Level Estimated
03:34PM 50.0541 8.4079 108° East  Level Estimated
03:35PM 50.0279 8.5360 108° East  Level Estimated
03:36PM 50.0264 8.5431 108° East  Level Estimated
03:37PM 50.0264 8.5431 73° East  Level Estimated
03:38PM 50.0264 8.5431 73° East  Level Estimated
03:39PM 50.0264 8.5431 73° East  Level Estimated
03:40PM 50.0264 8.5431 73° East  Level Estimated
03:41PM 50.0264 8.5431 73° East  Level Estimated
03:42PM 50.0264 8.5431 73° East  Level Estimated
03:43PM 50.0264 8.5431 73° East  Level Estimated
03:44PM 50.0264 8.5431 73° East  Level Estimated
03:45PM 50.0264 8.5431 73° East  Level Estimated
03:46PM 50.0264 8.5431 73° East  Level Estimated
03:47PM 50.0264 8.5431 73° East  Level Estimated
03:48PM 50.0264 8.5431 73° East  Level Estimated
03:49PM 50.0264 8.5431 73° East  Level Estimated